Time;durP1;ratioP1;P1;durP2;ratioP2;P2;SDS_P1;SDS_P2;PMS_P1;PMS_P2;Temp;Humidity;BMP_temperature;BMP_pressure;BME280_temperature;BME280_humidity;BME280_pressure;Samples;Min_cycle;Max_cycle;Signal;HPM_P1;HPM_P2
2024/03/19 00:00:49;;;;;;;;;;;;;;;9.99;71.71;98129.44;5069768;28;19928;-76
2024/03/19 00:03:15;;;;;;;;;;;;;;;9.94;71.80;98127.63;5088102;28;19927;-76
2024/03/19 00:05:42;;;;;;;;;;;;;;;9.93;72.02;98125.22;5072549;28;19928;-76
2024/03/19 00:08:09;;;;;;;;;;;;;;;9.94;72.04;98127.63;5085384;28;19924;-75
2024/03/19 00:10:36;;;;;;;;;;;;;;;9.86;72.26;98131.06;5078011;28;20023;-76
2024/03/19 00:13:02;;;;;;;;;;;;;;;9.80;72.52;98121.41;5055243;28;19932;-76
2024/03/19 00:15:30;;;;;;;;;;;;;;;9.80;72.43;98126.84;5078920;28;20063;-76
2024/03/19 00:17:58;;;;;;;;;;;;;;;9.73;73.09;98126.41;5073660;28;19935;-75
2024/03/19 00:20:24;;;;;;;;;;;;;;;9.74;73.11;98127.22;5069764;28;20457;-75
2024/03/19 00:22:51;;;;;;;;;;;;;;;9.76;73.06;98131.25;5064283;28;19935;-75
2024/03/19 00:25:19;;;;;;;;;;;;;;;9.86;72.49;98119.41;5060465;28;20030;-75
2024/03/19 00:27:45;;;;;;;;;;;;;;;9.92;72.27;98118.19;5055482;28;19939;-76
2024/03/19 00:30:13;;;;;;;;;;;;;;;9.89;71.85;98116.88;5087498;28;19928;-76
2024/03/19 00:32:40;;;;;;;;;;;;;;;9.91;71.93;98122.00;5089254;28;19931;-75
2024/03/19 00:35:09;;;;;;;;;;;;;;;9.99;71.35;98132.16;5062682;28;19977;-75
2024/03/19 00:37:36;;;;;;;;;;;;;;;10.03;71.35;98129.66;5085400;28;19932;-75
2024/03/19 00:40:04;;;;;;;;;;;;;;;10.06;71.20;98126.31;5058042;28;19927;-76
2024/03/19 00:42:31;;;;;;;;;;;;;;;9.93;70.85;98131.44;5066767;28;19924;-75
2024/03/19 00:44:58;;;;;;;;;;;;;;;9.88;71.37;98123.41;5060658;28;19924;-76
2024/03/19 00:47:25;;;;;;;;;;;;;;;9.79;71.91;98136.06;5057406;28;19928;-81
2024/03/19 00:49:52;;;;;;;;;;;;;;;9.79;71.88;98133.34;5073936;28;20574;-81
2024/03/19 00:52:20;;;;;;;;;;;;;;;9.77;72.16;98138.28;5069502;28;19924;-81
2024/03/19 00:54:48;;;;;;;;;;;;;;;9.75;71.97;98136.94;5072252;28;19932;-81
2024/03/19 00:57:16;;;;;;;;;;;;;;;9.80;71.64;98137.69;5062239;28;19976;-81
2024/03/19 00:59:42;;;;;;;;;;;;;;;9.73;72.15;98137.25;5076995;28;19925;-81
2024/03/19 01:02:10;;;;;;;;;;;;;;;9.72;72.01;98141.09;5040648;28;19928;-80
2024/03/19 01:04:37;;;;;;;;;;;;;;;9.59;72.59;98139.16;5047341;28;20263;-80
2024/03/19 01:07:04;;;;;;;;;;;;;;;9.52;72.53;98138.72;5074901;28;19924;-81
2024/03/19 01:09:32;;;;;;;;;;;;;;;9.41;72.90;98132.69;5057365;28;19931;-81
2024/03/19 01:11:59;;;;;;;;;;;;;;;9.55;72.24;98138.16;5051483;28;19935;-81
2024/03/19 01:14:26;;;;;;;;;;;;;;;9.44;72.99;98138.34;5055263;28;19929;-82
2024/03/19 01:16:52;;;;;;;;;;;;;;;9.41;72.74;98136.19;5059617;28;19927;-81
2024/03/19 01:19:21;;;;;;;;;;;;;;;9.36;72.83;98136.28;5081697;28;19946;-81
2024/03/19 01:21:47;;;;;;;;;;;;;;;9.29;73.24;98135.06;5063400;28;19932;-81
2024/03/19 01:24:14;;;;;;;;;;;;;;;9.19;73.83;98138.75;5042607;28;19963;-81
2024/03/19 01:26:45;;;;;;;;;;;;;;;9.19;73.67;98144.97;5054287;28;20482;-81
2024/03/19 01:29:12;;;;;;;;;;;;;;;9.19;73.93;98133.34;5066565;28;19968;-81
2024/03/19 01:31:39;;;;;;;;;;;;;;;9.25;73.57;98136.75;5071368;28;19954;-80
2024/03/19 01:34:06;;;;;;;;;;;;;;;9.34;73.03;98140.41;5077645;28;20309;-80
2024/03/19 01:36:32;;;;;;;;;;;;;;;9.28;73.50;98142.41;5076214;28;20356;-80
2024/03/19 01:38:59;;;;;;;;;;;;;;;9.30;73.39;98137.47;5066121;28;19924;-79
2024/03/19 01:41:26;;;;;;;;;;;;;;;9.45;72.94;98137.22;5089698;28;19931;-79
2024/03/19 01:43:54;;;;;;;;;;;;;;;9.47;72.75;98139.63;5037203;28;19928;-79
2024/03/19 01:46:25;;;;;;;;;;;;;;;9.38;72.94;98131.41;5077570;28;19959;-80
2024/03/19 01:48:52;;;;;;;;;;;;;;;9.39;73.07;98134.91;5076679;28;19931;-80
2024/03/19 01:51:19;;;;;;;;;;;;;;;9.18;73.77;98127.13;5076112;28;19946;-80
2024/03/19 01:53:45;;;;;;;;;;;;;;;9.18;73.77;98131.72;5070050;28;19932;-80
2024/03/19 01:56:12;;;;;;;;;;;;;;;9.25;73.49;98131.34;5055733;28;19963;-78
2024/03/19 01:58:39;;;;;;;;;;;;;;;9.28;73.41;98122.63;5088218;28;19924;-78
2024/03/19 02:01:10;;;;;;;;;;;;;;;9.20;73.58;98126.81;5060954;28;20421;-77
2024/03/19 02:03:37;;;;;;;;;;;;;;;9.27;73.38;98121.81;5054860;28;19931;-78
2024/03/19 02:06:04;;;;;;;;;;;;;;;9.30;73.15;98125.84;5087135;28;20330;-76
2024/03/19 02:08:31;;;;;;;;;;;;;;;9.37;72.85;98124.34;5060660;28;20370;-76
2024/03/19 02:10:57;;;;;;;;;;;;;;;9.36;72.88;98116.50;5061578;28;19924;-76
2024/03/19 02:13:24;;;;;;;;;;;;;;;9.39;72.80;98124.06;5086152;28;19930;-77
2024/03/19 02:15:51;;;;;;;;;;;;;;;9.30;73.18;98120.41;5058361;28;20022;-77
2024/03/19 02:18:19;;;;;;;;;;;;;;;9.34;72.84;98126.84;5054955;28;19990;-77
2024/03/19 02:20:45;;;;;;;;;;;;;;;9.32;72.63;98121.75;5065822;28;20019;-77
2024/03/19 02:23:13;;;;;;;;;;;;;;;9.42;72.43;98115.31;5065868;28;19924;-77
2024/03/19 02:25:40;;;;;;;;;;;;;;;9.35;72.72;98114.91;5060383;28;19974;-77
2024/03/19 02:28:07;;;;;;;;;;;;;;;9.35;72.73;98109.47;5065572;28;19924;-77
2024/03/19 02:30:34;;;;;;;;;;;;;;;9.36;72.64;98106.47;5073850;28;20287;-77
2024/03/19 02:33:01;;;;;;;;;;;;;;;9.35;72.77;98098.63;5054640;28;20467;-77
2024/03/19 02:35:28;;;;;;;;;;;;;;;9.31;73.05;98095.72;5072831;28;20384;-77
2024/03/19 02:37:57;;;;;;;;;;;;;;;9.31;73.12;98092.19;5065401;28;19924;-77
2024/03/19 02:40:28;;;;;;;;;;;;;;;9.27;73.16;98097.44;5058020;28;19928;-77
2024/03/19 02:42:59;;;;;;;;;;;;;;;9.23;73.39;98093.69;5080029;28;19935;-77
2024/03/19 02:45:27;;;;;;;;;;;;;;;9.26;73.05;98095.00;5083979;28;20335;-77
2024/03/19 02:47:54;;;;;;;;;;;;;;;9.21;73.29;98106.72;5063450;28;19982;-77
2024/03/19 02:50:20;;;;;;;;;;;;;;;9.28;73.19;98109.06;5071194;28;19928;-77
2024/03/19 02:52:47;;;;;;;;;;;;;;;9.29;72.97;98100.63;5071704;28;20325;-77
2024/03/19 02:55:14;;;;;;;;;;;;;;;9.17;73.38;98109.25;5060640;28;19928;-77
2024/03/19 02:57:43;;;;;;;;;;;;;;;9.13;73.52;98119.06;5073470;28;19928;-77
2024/03/19 03:00:10;;;;;;;;;;;;;;;9.08;73.94;98112.94;5074384;28;19923;-77
2024/03/19 03:02:39;;;;;;;;;;;;;;;9.16;73.61;98107.66;5089608;28;19928;-76
2024/03/19 03:05:06;;;;;;;;;;;;;;;9.20;73.58;98118.69;5054924;28;20444;-84
2024/03/19 03:07:37;;;;;;;;;;;;;;;9.20;73.23;98115.97;5065232;28;19924;-85
2024/03/19 03:10:04;;;;;;;;;;;;;;;9.14;73.27;98126.09;5058777;28;19928;-85
2024/03/19 03:12:31;;;;;;;;;;;;;;;9.22;73.21;98127.34;5050320;28;19924;-86
2024/03/19 03:14:59;;;;;;;;;;;;;;;9.25;73.06;98129.44;5058533;28;19931;-86
2024/03/19 03:17:26;;;;;;;;;;;;;;;9.20;73.27;98124.09;5076761;28;19939;-86
2024/03/19 03:19:53;;;;;;;;;;;;;;;9.23;73.21;98117.28;5064580;28;19932;-86
2024/03/19 03:22:20;;;;;;;;;;;;;;;9.25;73.31;98124.00;5040129;28;20301;-85
2024/03/19 03:24:47;;;;;;;;;;;;;;;9.19;73.03;98126.00;5049387;28;19924;-84
2024/03/19 03:27:14;;;;;;;;;;;;;;;9.19;73.10;98122.50;5044574;28;19940;-85
2024/03/19 03:29:42;;;;;;;;;;;;;;;9.18;72.79;98131.72;5048873;28;19928;-86
2024/03/19 03:32:11;;;;;;;;;;;;;;;9.20;72.69;98124.09;5044853;28;19928;-86
2024/03/19 03:34:37;;;;;;;;;;;;;;;9.14;72.74;98122.56;5065983;28;19924;-86
2024/03/19 03:37:05;;;;;;;;;;;;;;;9.19;72.36;98123.28;5058713;28;19963;-86
2024/03/19 03:39:32;;;;;;;;;;;;;;;9.21;72.38;98128.41;5081407;28;19935;-86
2024/03/19 03:42:00;;;;;;;;;;;;;;;9.24;72.28;98118.91;5048524;28;19934;-86
2024/03/19 03:44:27;;;;;;;;;;;;;;;9.25;71.97;98125.91;5055561;28;20393;-85
2024/03/19 03:46:54;;;;;;;;;;;;;;;9.23;72.09;98126.22;5063603;28;19993;-86
2024/03/19 03:49:22;;;;;;;;;;;;;;;9.18;72.36;98116.28;5053696;28;19924;-85
2024/03/19 03:54:59;;;;;;;;;;;;;;;9.15;72.21;98119.56;5084409;28;20356;-86
2024/03/19 03:57:26;;;;;;;;;;;;;;;9.14;72.34;98123.38;5062641;28;19932;-86
2024/03/19 03:59:53;;;;;;;;;;;;;;;9.17;72.43;98135.56;5065921;28;20319;-87
2024/03/19 04:02:20;;;;;;;;;;;;;;;9.16;72.26;98120.38;5060615;28;19924;-87
2024/03/19 04:04:48;;;;;;;;;;;;;;;9.10;72.36;98118.84;5083189;28;19928;-87
2024/03/19 04:07:15;;;;;;;;;;;;;;;9.09;72.62;98126.16;5071791;28;20299;-86
2024/03/19 04:09:42;;;;;;;;;;;;;;;9.07;72.48;98133.00;5087134;28;20022;-86
2024/03/19 04:12:10;;;;;;;;;;;;;;;9.10;72.35;98119.66;5059427;28;19954;-86
2024/03/19 04:17:49;;;;;;;;;;;;;;;9.04;72.69;98131.66;5070475;28;19924;-87
2024/03/19 04:20:20;;;;;;;;;;;;;;;9.06;72.58;98132.19;5048069;28;19928;-86
2024/03/19 04:22:47;;;;;;;;;;;;;;;9.04;72.60;98130.88;5048708;28;20368;-86
2024/03/19 04:25:14;;;;;;;;;;;;;;;9.08;72.27;98121.84;5045161;28;19969;-87
2024/03/19 04:27:40;;;;;;;;;;;;;;;9.09;72.23;98133.50;5059510;28;19924;-87
2024/03/19 04:30:08;;;;;;;;;;;;;;;9.06;72.69;98129.50;5042914;28;19924;-88
2024/03/19 04:32:35;;;;;;;;;;;;;;;9.01;72.76;98128.78;5046515;28;20020;-88
2024/03/19 04:35:02;;;;;;;;;;;;;;;8.96;73.06;98129.66;5106859;28;19912;-88
2024/03/19 04:38:01;;;;;;;;;;;;;;;8.96;72.90;98124.22;5086047;28;20022;-88
2024/03/19 04:40:29;;;;;;;;;;;;;;;8.93;72.89;98130.22;5083281;28;19924;-88
2024/03/19 04:42:56;;;;;;;;;;;;;;;8.91;73.16;98127.03;5049739;28;19932;-88
2024/03/19 04:45:23;;;;;;;;;;;;;;;8.92;72.76;98128.63;5077407;28;19938;-88
2024/03/19 04:47:51;;;;;;;;;;;;;;;8.93;72.77;98125.59;5065256;28;19924;-88
2024/03/19 04:50:18;;;;;;;;;;;;;;;8.96;72.51;98134.28;5047029;28;19928;-89
2024/03/19 04:52:45;;;;;;;;;;;;;;;8.77;73.04;98132.38;5056700;28;19924;-89
2024/03/19 04:55:12;;;;;;;;;;;;;;;8.69;73.59;98132.25;5050609;28;19925;-88
2024/03/19 04:57:41;;;;;;;;;;;;;;;8.69;73.69;98140.38;5064805;28;19924;-89
2024/03/19 05:00:10;;;;;;;;;;;;;;;8.62;73.99;98135.28;5050543;28;20001;-87
2024/03/19 05:02:36;;;;;;;;;;;;;;;8.59;74.31;98138.59;5089021;28;19939;-88
2024/03/19 05:05:03;;;;;;;;;;;;;;;8.58;74.48;98143.22;5089774;28;20372;-88
2024/03/19 05:07:30;;;;;;;;;;;;;;;8.65;74.45;98140.13;5060260;28;19928;-85
2024/03/19 05:09:57;;;;;;;;;;;;;;;8.74;74.06;98143.81;5055515;28;19953;-86
2024/03/19 05:12:24;;;;;;;;;;;;;;;8.57;74.85;98144.28;5075034;28;19924;-85
2024/03/19 05:14:53;;;;;;;;;;;;;;;8.72;74.29;98142.47;5068232;28;19924;-88
2024/03/19 05:17:20;;;;;;;;;;;;;;;8.91;73.50;98143.28;5082868;28;19924;-88
2024/03/19 05:19:47;;;;;;;;;;;;;;;8.95;73.10;98144.31;5064609;28;19939;-83
2024/03/19 05:22:13;;;;;;;;;;;;;;;8.91;73.31;98141.38;5066405;28;20013;-84
2024/03/19 05:24:40;;;;;;;;;;;;;;;9.01;73.10;98143.13;5072543;28;19932;-87
2024/03/19 05:27:08;;;;;;;;;;;;;;;9.09;72.75;98145.16;5056161;28;19949;-75
2024/03/19 05:29:34;;;;;;;;;;;;;;;9.25;72.27;98148.41;5043109;28;19924;-77
2024/03/19 05:32:05;;;;;;;;;;;;;;;9.32;71.56;98146.16;5055701;28;19967;-74
2024/03/19 05:34:32;;;;;;;;;;;;;;;9.31;71.68;98144.50;5038157;28;19928;-75
2024/03/19 05:36:59;;;;;;;;;;;;;;;9.42;71.19;98153.28;5060565;28;19932;-76
2024/03/19 05:39:26;;;;;;;;;;;;;;;9.38;71.21;98158.50;5076163;28;19924;-74
2024/03/19 05:41:52;;;;;;;;;;;;;;;9.49;71.04;98163.75;5045514;28;19931;-75
2024/03/19 05:44:19;;;;;;;;;;;;;;;9.61;70.30;98166.78;5052371;28;19978;-75
2024/03/19 05:46:45;;;;;;;;;;;;;;;9.51;70.56;98167.78;5055226;28;19927;-76
2024/03/19 05:49:14;;;;;;;;;;;;;;;9.65;70.43;98168.63;5062458;28;19928;-75
2024/03/19 05:51:40;;;;;;;;;;;;;;;9.73;70.09;98164.38;5086672;28;19980;-76
2024/03/19 05:54:07;;;;;;;;;;;;;;;9.78;69.86;98158.88;5070788;28;19928;-76
2024/03/19 05:56:34;;;;;;;;;;;;;;;9.65;70.54;98170.53;5076451;28;19957;-76
2024/03/19 05:59:01;;;;;;;;;;;;;;;9.44;70.89;98167.34;5071970;28;19928;-76
2024/03/19 06:01:28;;;;;;;;;;;;;;;9.53;70.49;98153.91;5060223;28;19925;-82
2024/03/19 06:03:56;;;;;;;;;;;;;;;9.50;70.66;98166.16;5056966;28;20520;-75
2024/03/19 06:06:24;;;;;;;;;;;;;;;9.45;70.62;98172.47;5082696;28;19924;-85
2024/03/19 06:08:51;;;;;;;;;;;;;;;9.58;70.28;98175.50;5059868;28;19958;-90
2024/03/19 06:11:17;;;;;;;;;;;;;;;9.62;70.29;98179.25;5060361;28;19951;-87
2024/03/19 06:13:46;;;;;;;;;;;;;;;9.73;69.63;98185.28;5050936;28;19959;-78
2024/03/19 06:16:13;;;;;;;;;;;;;;;9.58;70.20;98178.22;5074803;28;19924;-74
2024/03/19 06:18:39;;;;;;;;;;;;;;;9.52;70.41;98184.84;5064856;28;19963;-78
2024/03/19 06:21:06;;;;;;;;;;;;;;;9.60;70.17;98181.47;5052267;28;19928;-76
2024/03/19 06:23:34;;;;;;;;;;;;;;;9.68;70.22;98184.28;5061313;28;20276;-76
2024/03/19 06:26:01;;;;;;;;;;;;;;;9.67;70.01;98184.59;5073384;28;19924;-77
2024/03/19 06:28:28;;;;;;;;;;;;;;;9.57;70.23;98192.91;5057318;28;19928;-73
2024/03/19 06:30:55;;;;;;;;;;;;;;;9.55;70.59;98187.78;5070042;28;19931;-74
2024/03/19 06:33:21;;;;;;;;;;;;;;;9.66;70.15;98193.84;5042063;28;19928;-74
2024/03/19 06:35:51;;;;;;;;;;;;;;;9.87;69.49;98192.34;5059305;28;20380;-84
2024/03/19 06:38:18;;;;;;;;;;;;;;;9.73;69.70;98190.72;5041630;28;19928;-84
2024/03/19 06:40:46;;;;;;;;;;;;;;;9.83;70.04;98190.53;5055170;28;19928;-83
2024/03/19 06:43:13;;;;;;;;;;;;;;;9.73;69.99;98190.72;5055257;28;20014;-82
2024/03/19 06:45:40;;;;;;;;;;;;;;;9.90;69.39;98196.38;5052844;28;19925;-83
2024/03/19 06:48:08;;;;;;;;;;;;;;;9.89;69.44;98198.28;5062396;28;20287;-83
2024/03/19 06:50:38;;;;;;;;;;;;;;;9.85;69.27;98193.75;5068181;28;19935;-83
2024/03/19 06:53:06;;;;;;;;;;;;;;;9.87;69.06;98197.78;5067982;28;19926;-82
2024/03/19 06:55:33;;;;;;;;;;;;;;;9.93;69.28;98199.28;5057521;28;19935;-82
2024/03/19 06:58:01;;;;;;;;;;;;;;;9.78;69.74;98204.19;5074916;28;19924;-82
2024/03/19 07:00:28;;;;;;;;;;;;;;;9.68;69.93;98202.47;5058791;28;19924;-82
2024/03/19 07:02:55;;;;;;;;;;;;;;;9.82;69.81;98216.06;5060593;28;19924;-83
2024/03/19 07:05:23;;;;;;;;;;;;;;;9.95;69.17;98215.28;5084444;28;19924;-83
2024/03/19 07:07:54;;;;;;;;;;;;;;;9.88;69.51;98220.28;5044963;28;19924;-83
2024/03/19 07:10:21;;;;;;;;;;;;;;;9.82;69.37;98225.00;5056132;28;19930;-84
2024/03/19 07:12:48;;;;;;;;;;;;;;;9.83;69.85;98229.34;5071566;28;19932;-84
2024/03/19 07:15:16;;;;;;;;;;;;;;;9.81;69.99;98228.03;5046830;28;19978;-82
2024/03/19 07:17:49;;;;;;;;;;;;;;;9.75;70.43;98238.16;5055219;28;19947;-83
2024/03/19 07:20:18;;;;;;;;;;;;;;;9.76;70.80;98239.78;5054998;28;19947;-83
2024/03/19 07:22:46;;;;;;;;;;;;;;;10.04;70.29;98234.41;5055399;28;19931;-84
2024/03/19 07:25:13;;;;;;;;;;;;;;;9.99;70.32;98235.28;5054737;28;19939;-83
2024/03/19 07:27:41;;;;;;;;;;;;;;;10.09;70.42;98231.59;5038762;28;19928;-83
2024/03/19 07:30:08;;;;;;;;;;;;;;;10.11;70.39;98238.31;5062245;28;19928;-83
2024/03/19 07:32:36;;;;;;;;;;;;;;;10.17;69.73;98244.47;5074936;28;19924;-83
2024/03/19 07:35:04;;;;;;;;;;;;;;;10.25;69.59;98245.72;5074511;28;19971;-84
2024/03/19 07:37:32;;;;;;;;;;;;;;;10.15;69.81;98242.03;5073937;28;19973;-83
2024/03/19 07:39:58;;;;;;;;;;;;;;;9.91;70.54;98244.94;5043926;28;20380;-83
2024/03/19 07:42:25;;;;;;;;;;;;;;;9.96;70.73;98244.84;5053888;28;19931;-83
2024/03/19 07:44:52;;;;;;;;;;;;;;;10.00;70.97;98255.09;5042105;28;19928;-84
2024/03/19 07:47:18;;;;;;;;;;;;;;;10.14;70.82;98253.22;5063197;28;19931;-74
2024/03/19 07:49:49;;;;;;;;;;;;;;;10.12;70.64;98250.81;5054784;28;19924;-74
2024/03/19 07:52:16;;;;;;;;;;;;;;;10.27;70.32;98252.44;5054815;28;19935;-74
2024/03/19 07:54:43;;;;;;;;;;;;;;;10.21;70.36;98249.00;5071235;28;19957;-75
2024/03/19 07:57:10;;;;;;;;;;;;;;;10.18;70.51;98256.94;5071011;28;19924;-74
2024/03/19 07:59:37;;;;;;;;;;;;;;;10.24;70.35;98250.34;5054261;28;19924;-74
2024/03/19 08:02:04;;;;;;;;;;;;;;;10.22;70.58;98247.06;5051428;28;19929;-75
2024/03/19 08:04:31;;;;;;;;;;;;;;;10.32;70.12;98252.34;5058074;28;20571;-76
2024/03/19 08:06:59;;;;;;;;;;;;;;;10.36;69.96;98258.78;5049103;28;19932;-74
2024/03/19 08:09:26;;;;;;;;;;;;;;;10.34;70.25;98252.06;5051930;28;19932;-74
2024/03/19 08:11:54;;;;;;;;;;;;;;;10.46;70.21;98258.59;5068315;28;19925;-75
2024/03/19 08:14:21;;;;;;;;;;;;;;;10.53;70.34;98251.94;5036965;28;19978;-75
2024/03/19 08:16:47;;;;;;;;;;;;;;;10.66;69.83;98248.44;5051366;28;20047;-75
2024/03/19 08:19:39;;;;;;;;;;;;;;;10.70;69.32;98252.13;5053490;28;20340;-78
2024/03/19 08:22:07;;;;;;;;;;;;;;;10.80;68.44;98257.34;5038275;28;19929;-78
2024/03/19 08:24:34;;;;;;;;;;;;;;;10.78;68.46;98248.72;5021252;28;20311;-78
2024/03/19 08:27:01;;;;;;;;;;;;;;;10.86;67.85;98255.34;5054615;28;19924;-78
2024/03/19 08:29:28;;;;;;;;;;;;;;;10.96;66.96;98261.34;5053316;28;20498;-78
2024/03/19 08:31:54;;;;;;;;;;;;;;;10.99;67.28;98258.03;5035298;28;19924;-78
2024/03/19 08:34:21;;;;;;;;;;;;;;;11.04;66.20;98259.06;5035450;28;19925;-78
2024/03/19 08:36:48;;;;;;;;;;;;;;;11.01;66.87;98261.25;5035174;28;20427;-78
2024/03/19 08:39:16;;;;;;;;;;;;;;;11.12;66.39;98261.03;5034909;28;19925;-78
2024/03/19 08:41:43;;;;;;;;;;;;;;;11.26;65.21;98259.09;5055388;28;19924;-78
2024/03/19 08:44:09;;;;;;;;;;;;;;;11.27;65.34;98256.03;5038189;28;19936;-78
2024/03/19 08:46:36;;;;;;;;;;;;;;;11.38;65.18;98256.63;5035410;28;19978;-78
2024/03/19 08:49:03;;;;;;;;;;;;;;;11.54;64.59;98259.78;5025063;28;19925;-77
2024/03/19 08:51:31;;;;;;;;;;;;;;;11.64;62.29;98256.81;5044003;28;19928;-78
2024/03/19 08:53:58;;;;;;;;;;;;;;;11.66;62.38;98256.50;5055175;28;19925;-78
2024/03/19 08:56:27;;;;;;;;;;;;;;;11.84;61.86;98263.72;5039849;28;19932;-85
2024/03/19 08:58:54;;;;;;;;;;;;;;;11.83;60.91;98264.84;5057652;28;19924;-85
2024/03/19 09:01:22;;;;;;;;;;;;;;;11.92;61.17;98270.31;5044390;28;20415;-84
2024/03/19 09:03:51;;;;;;;;;;;;;;;12.06;60.12;98268.31;5056615;28;19931;-83
2024/03/19 09:06:18;;;;;;;;;;;;;;;12.15;60.17;98273.81;5056686;28;20023;-84
2024/03/19 09:08:46;;;;;;;;;;;;;;;12.10;60.28;98271.25;5079570;28;20367;-85
2024/03/19 09:11:12;;;;;;;;;;;;;;;12.17;59.52;98271.59;5058544;28;19968;-85
2024/03/19 09:13:40;;;;;;;;;;;;;;;12.15;58.92;98268.38;5075143;28;19928;-84
2024/03/19 09:16:07;;;;;;;;;;;;;;;12.25;59.25;98263.47;5057991;28;19924;-84
2024/03/19 09:18:34;;;;;;;;;;;;;;;12.33;58.86;98264.59;5058599;28;19930;-84
2024/03/19 09:21:01;;;;;;;;;;;;;;;12.36;58.04;98258.53;5071438;28;19934;-83
2024/03/19 09:23:27;;;;;;;;;;;;;;;12.46;58.33;98265.63;5058876;28;19925;-84
2024/03/19 09:25:54;;;;;;;;;;;;;;;12.44;57.75;98263.22;5058840;28;19924;-84
2024/03/19 09:28:21;;;;;;;;;;;;;;;12.39;57.49;98270.72;5065259;28;19935;-84
2024/03/19 09:30:49;;;;;;;;;;;;;;;12.43;58.06;98268.97;5047383;28;19924;-83
2024/03/19 09:33:16;;;;;;;;;;;;;;;12.55;57.93;98261.81;5054695;28;19925;-83
2024/03/19 09:35:43;;;;;;;;;;;;;;;12.59;57.19;98259.25;5055115;28;20033;-83
2024/03/19 09:38:09;;;;;;;;;;;;;;;12.72;57.66;98262.97;5066502;28;19925;-83
2024/03/19 09:40:36;;;;;;;;;;;;;;;12.72;56.93;98263.78;5048944;28;19924;-83
2024/03/19 09:43:03;;;;;;;;;;;;;;;12.72;56.62;98262.97;5074775;28;19935;-83
2024/03/19 09:45:30;;;;;;;;;;;;;;;12.77;57.23;98271.00;5059491;28;19924;-83
2024/03/19 09:47:59;;;;;;;;;;;;;;;12.84;56.81;98264.00;5076321;28;20761;-83
2024/03/19 09:50:28;;;;;;;;;;;;;;;12.91;55.86;98263.53;5073269;28;19927;-83
2024/03/19 09:52:55;;;;;;;;;;;;;;;12.98;55.79;98274.75;5074611;28;19924;-84
2024/03/19 09:55:25;;;;;;;;;;;;;;;13.07;56.36;98270.13;5074898;28;19931;-83
2024/03/19 09:57:52;;;;;;;;;;;;;;;13.16;56.06;98263.88;5068611;28;20395;-83
2024/03/19 10:00:23;;;;;;;;;;;;;;;13.20;56.14;98262.91;5059390;28;21368;-83
2024/03/19 10:02:50;;;;;;;;;;;;;;;13.21;55.05;98269.16;5076453;28;19924;-83
2024/03/19 10:05:18;;;;;;;;;;;;;;;13.33;54.86;98261.19;5076509;28;20495;-86
2024/03/19 10:07:45;;;;;;;;;;;;;;;13.42;54.81;98269.38;5077314;28;19924;-87
2024/03/19 10:10:15;;;;;;;;;;;;;;;13.36;54.13;98264.06;5054179;28;20033;-86
2024/03/19 10:12:42;;;;;;;;;;;;;;;13.30;54.51;98264.56;5048304;28;19924;-87
2024/03/19 10:15:09;;;;;;;;;;;;;;;13.39;54.06;98261.84;5063069;28;19924;-86
2024/03/19 10:17:36;;;;;;;;;;;;;;;13.38;54.55;98265.69;5058163;28;19931;-87
2024/03/19 10:20:04;;;;;;;;;;;;;;;13.40;54.43;98258.78;5059208;28;19924;-86
2024/03/19 10:22:32;;;;;;;;;;;;;;;13.54;54.45;98253.97;5076467;28;19987;-85
2024/03/19 10:24:59;;;;;;;;;;;;;;;13.48;53.76;98266.19;5060438;28;19924;-85
2024/03/19 10:27:28;;;;;;;;;;;;;;;13.46;53.85;98262.94;5062012;28;19924;-85
2024/03/19 10:29:56;;;;;;;;;;;;;;;13.59;54.09;98256.53;5090854;27;19912;-86
2024/03/19 10:32:23;;;;;;;;;;;;;;;13.70;53.50;98256.22;5067991;28;20299;-86
2024/03/19 10:34:50;;;;;;;;;;;;;;;13.67;53.20;98256.84;5077058;28;19981;-86
2024/03/19 10:37:18;;;;;;;;;;;;;;;13.65;53.75;98248.97;5046207;28;20214;-86
2024/03/19 10:39:46;;;;;;;;;;;;;;;13.69;53.63;98255.41;5057101;28;20016;-86
2024/03/19 10:42:14;;;;;;;;;;;;;;;13.74;53.53;98248.94;5049689;28;19924;-86
2024/03/19 10:44:44;;;;;;;;;;;;;;;13.84;53.72;98245.88;5060218;28;19924;-86
2024/03/19 10:47:11;;;;;;;;;;;;;;;13.88;53.81;98249.59;5075975;28;20002;-86
2024/03/19 10:49:38;;;;;;;;;;;;;;;13.91;53.41;98240.75;5076807;28;19924;-86
2024/03/19 10:52:10;;;;;;;;;;;;;;;13.96;53.81;98242.50;5076919;28;19924;-86
2024/03/19 10:54:37;;;;;;;;;;;;;;;14.05;52.89;98240.53;5059460;28;19924;-86
2024/03/19 10:57:05;;;;;;;;;;;;;;;14.01;52.58;98234.94;5075271;28;19932;-86
2024/03/19 10:59:35;;;;;;;;;;;;;;;14.10;53.13;98238.44;5073697;28;20626;-86
2024/03/19 11:02:04;;;;;;;;;;;;;;;14.18;52.38;98241.47;5059172;28;19931;-86
2024/03/19 11:04:31;;;;;;;;;;;;;;;14.23;52.74;98231.19;5056554;28;20372;-86
2024/03/19 11:06:59;;;;;;;;;;;;;;;14.21;52.57;98238.09;5056118;28;19928;-86
2024/03/19 11:09:26;;;;;;;;;;;;;;;14.15;52.36;98237.47;5054686;28;19931;-86
2024/03/19 11:11:54;;;;;;;;;;;;;;;14.12;52.50;98238.94;5058334;28;19931;-86
2024/03/19 11:14:24;;;;;;;;;;;;;;;14.18;52.48;98234.09;5059351;28;19939;-86
2024/03/19 11:16:51;;;;;;;;;;;;;;;14.14;52.42;98233.13;5074045;28;19940;-80
2024/03/19 11:19:18;;;;;;;;;;;;;;;14.28;52.25;98241.13;5036493;28;19924;-79
2024/03/19 11:21:45;;;;;;;;;;;;;;;14.36;51.94;98230.16;5046008;28;19924;-79
2024/03/19 11:24:22;;;;;;;;;;;;;;;14.36;50.78;98229.34;5056072;28;19928;-80
2024/03/19 11:26:54;;;;;;;;;;;;;;;14.49;50.60;98233.00;5043660;28;20390;-79
2024/03/19 11:29:22;;;;;;;;;;;;;;;14.59;50.71;98225.22;5052496;28;19929;-79
2024/03/19 11:31:50;;;;;;;;;;;;;;;14.66;49.66;98231.00;5055730;28;19924;-79
2024/03/19 11:34:18;;;;;;;;;;;;;;;14.81;49.66;98218.69;5056023;28;19990;-79
2024/03/19 11:36:45;;;;;;;;;;;;;;;14.75;49.06;98227.41;5050634;28;19966;-79
2024/03/19 11:39:12;;;;;;;;;;;;;;;14.70;48.30;98228.41;5052894;28;19932;-79
2024/03/19 11:41:39;;;;;;;;;;;;;;;14.80;47.78;98221.75;5054707;28;19977;-79
2024/03/19 11:44:07;;;;;;;;;;;;;;;14.82;47.79;98219.50;5054512;28;19936;-79
2024/03/19 11:46:34;;;;;;;;;;;;;;;14.88;47.89;98224.44;5067763;28;20376;-80
2024/03/19 11:49:02;;;;;;;;;;;;;;;14.98;47.39;98222.44;5052491;28;19925;-79
2024/03/19 11:51:29;;;;;;;;;;;;;;;15.08;47.81;98225.59;5052552;28;19928;-80
2024/03/19 11:54:02;;;;;;;;;;;;;;;15.07;48.38;98228.66;5040958;28;19947;-79
2024/03/19 11:56:29;;;;;;;;;;;;;;;15.06;48.51;98225.13;5071771;28;19935;-79
2024/03/19 11:58:56;;;;;;;;;;;;;;;15.08;48.88;98222.88;5053004;28;19925;-79
2024/03/19 12:01:23;;;;;;;;;;;;;;;15.04;49.00;98224.66;5056050;28;19935;-79
2024/03/19 12:03:50;;;;;;;;;;;;;;;15.13;48.76;98225.41;5039541;28;19929;-79
2024/03/19 12:06:18;;;;;;;;;;;;;;;15.14;48.62;98218.78;5056273;28;19929;-79
2024/03/19 12:08:45;;;;;;;;;;;;;;;15.24;48.36;98219.53;5056460;28;19974;-79
2024/03/19 12:11:14;;;;;;;;;;;;;;;15.01;47.59;98225.31;5057231;28;20661;-80
2024/03/19 12:13:40;;;;;;;;;;;;;;;15.00;47.12;98223.72;5051020;28;19928;-79
2024/03/19 12:16:08;;;;;;;;;;;;;;;14.98;46.51;98212.31;5075300;28;19935;-79
2024/03/19 12:18:35;;;;;;;;;;;;;;;14.91;47.18;98217.50;5053803;28;20449;-80
2024/03/19 12:21:03;;;;;;;;;;;;;;;14.86;46.61;98206.75;5058219;28;20348;-80
2024/03/19 12:23:31;;;;;;;;;;;;;;;14.97;48.15;98210.72;5059302;28;20249;-79
2024/03/19 12:25:58;;;;;;;;;;;;;;;14.96;48.56;98211.81;5059438;28;19924;-79
2024/03/19 12:28:25;;;;;;;;;;;;;;;15.02;48.31;98206.94;5048353;28;19928;-79
2024/03/19 12:30:54;;;;;;;;;;;;;;;15.06;48.59;98214.16;5055322;28;20367;-79
2024/03/19 12:33:27;;;;;;;;;;;;;;;15.19;48.38;98204.91;5057454;28;19989;-78
2024/03/19 12:35:54;;;;;;;;;;;;;;;15.26;48.32;98203.56;5056373;28;19939;-78
2024/03/19 12:38:21;;;;;;;;;;;;;;;15.26;47.19;98209.84;5049734;28;19928;-79
2024/03/19 12:40:49;;;;;;;;;;;;;;;15.20;46.85;98202.97;5058798;28;19924;-78
2024/03/19 12:43:15;;;;;;;;;;;;;;;15.17;46.71;98203.63;5059471;28;19928;-79
2024/03/19 12:45:42;;;;;;;;;;;;;;;15.17;46.33;98200.88;5046164;28;19929;-79
2024/03/19 12:48:09;;;;;;;;;;;;;;;15.12;45.31;98206.56;5066493;28;19928;-79
2024/03/19 12:50:37;;;;;;;;;;;;;;;15.03;45.07;98198.44;5054269;28;19933;-78
2024/03/19 12:53:05;;;;;;;;;;;;;;;15.11;45.85;98200.28;5068388;28;19924;-79
2024/03/19 12:55:31;;;;;;;;;;;;;;;15.20;46.30;98205.69;5051071;28;19924;-79
2024/03/19 12:57:59;;;;;;;;;;;;;;;15.27;45.15;98205.97;5038639;28;19929;-78
2024/03/19 13:00:26;;;;;;;;;;;;;;;15.25;45.47;98202.75;5061913;28;20557;-78